Terminal Aerodrome Forecast
Issued by NWS

Home | Current Version | Previous Version | Text Only | Print | Product List | Glossary On
Versions: 1 2 3 4 5 6 7 8 9 10 11 12 13 14 15 16
949
FTUS46 KMTR 311304 AAB
TAFSJC
TAF AMD
KSJC 311304Z 3113/0112 00000KT P6SM SCT008
      TEMPO 3113/3114 BKN008
     FM311500 13006KT P6SM FEW009
     FM311800 33005KT P6SM SKC
     FM312100 31011KT P6SM SKC
     FM010400 33006KT P6SM SKC
     FM011000 16004KT P6SM SKC=

USA.gov is the U.S. government's official web portal to all federal, state and local government web resources and services.